sensor_id;sensor_type;location;lat;lon;timestamp;pressure;altitude;pressure_sealevel;temperature;humidity
85914;BME280;76454;48.724;16.968;2024-02-21T00:02:04;100702.75;;;18.38;47.54
85914;BME280;76454;48.724;16.968;2024-02-21T00:04:30;100696.53;;;18.38;47.33
85914;BME280;76454;48.724;16.968;2024-02-21T00:06:55;100700.06;;;18.38;47.35
85914;BME280;76454;48.724;16.968;2024-02-21T00:09:20;100693.00;;;18.37;47.50
85914;BME280;76454;48.724;16.968;2024-02-21T00:11:45;100684.88;;;18.37;47.33
85914;BME280;76454;48.724;16.968;2024-02-21T00:14:11;100694.91;;;18.37;47.26
85914;BME280;76454;48.724;16.968;2024-02-21T00:16:36;100685.16;;;18.36;47.36
85914;BME280;76454;48.724;16.968;2024-02-21T00:19:01;100685.16;;;18.36;47.34
85914;BME280;76454;48.724;16.968;2024-02-21T00:21:26;100683.53;;;18.35;47.36
85914;BME280;76454;48.724;16.968;2024-02-21T00:23:51;100685.16;;;18.36;47.57
85914;BME280;76454;48.724;16.968;2024-02-21T00:26:17;100685.16;;;18.36;47.39
85914;BME280;76454;48.724;16.968;2024-02-21T00:28:42;100682.47;;;18.36;47.39
85914;BME280;76454;48.724;16.968;2024-02-21T00:31:07;100682.75;;;18.34;47.68
85914;BME280;76454;48.724;16.968;2024-02-21T00:33:32;100673.53;;;18.35;47.51
85914;BME280;76454;48.724;16.968;2024-02-21T00:35:57;100667.59;;;18.33;47.47
85914;BME280;76454;48.724;16.968;2024-02-21T00:38:23;100671.13;;;18.34;47.36
85914;BME280;76454;48.724;16.968;2024-02-21T00:40:48;100681.13;;;18.33;47.67
85914;BME280;76454;48.724;16.968;2024-02-21T00:43:13;100668.66;;;18.32;47.73
85914;BME280;76454;48.724;16.968;2024-02-21T00:45:38;100675.19;;;18.31;47.44
85914;BME280;76454;48.724;16.968;2024-02-21T00:48:04;100675.44;;;18.29;47.77
85914;BME280;76454;48.724;16.968;2024-02-21T00:50:29;100671.38;;;18.32;47.56
85914;BME280;76454;48.724;16.968;2024-02-21T00:52:54;100668.94;;;18.36;47.56
85914;BME280;76454;48.724;16.968;2024-02-21T00:55:19;100662.13;;;18.43;47.06
85914;BME280;76454;48.724;16.968;2024-02-21T00:57:45;100662.13;;;18.49;46.93
85914;BME280;76454;48.724;16.968;2024-02-21T01:00:10;100661.03;;;18.55;46.46
85914;BME280;76454;48.724;16.968;2024-02-21T01:02:35;100662.88;;;18.59;46.24
85914;BME280;76454;48.724;16.968;2024-02-21T01:05:01;100666.69;;;18.64;45.95
85914;BME280;76454;48.724;16.968;2024-02-21T01:07:26;100660.41;;;18.68;45.97
85914;BME280;76454;48.724;16.968;2024-02-21T01:09:52;100657.16;;;18.71;45.59
85914;BME280;76454;48.724;16.968;2024-02-21T01:12:17;100657.41;;;18.75;45.45
85914;BME280;76454;48.724;16.968;2024-02-21T01:14:42;100653.06;;;18.79;45.45
85914;BME280;76454;48.724;16.968;2024-02-21T01:17:08;100650.06;;;18.81;44.99
85914;BME280;76454;48.724;16.968;2024-02-21T01:19:33;100646.81;;;18.84;45.18
85914;BME280;76454;48.724;16.968;2024-02-21T01:21:58;100646.84;;;18.78;45.02
85914;BME280;76454;48.724;16.968;2024-02-21T01:24:23;100645.75;;;18.74;45.05
85914;BME280;76454;48.724;16.968;2024-02-21T01:26:49;100635.50;;;18.71;45.13
85914;BME280;76454;48.724;16.968;2024-02-21T01:29:14;100633.63;;;18.67;45.56
85914;BME280;76454;48.724;16.968;2024-02-21T01:31:39;100630.66;;;18.63;45.85
85914;BME280;76454;48.724;16.968;2024-02-21T01:34:04;100630.13;;;18.61;45.99
85914;BME280;76454;48.724;16.968;2024-02-21T01:36:29;100626.34;;;18.57;46.22
85914;BME280;76454;48.724;16.968;2024-02-21T01:38:55;100627.41;;;18.56;46.42
85914;BME280;76454;48.724;16.968;2024-02-21T01:41:20;100626.91;;;18.54;46.35
85914;BME280;76454;48.724;16.968;2024-02-21T01:43:45;100617.44;;;18.51;46.74
85914;BME280;76454;48.724;16.968;2024-02-21T01:46:10;100625.81;;;18.50;46.90
85914;BME280;76454;48.724;16.968;2024-02-21T01:48:37;100620.41;;;18.50;46.68
85914;BME280;76454;48.724;16.968;2024-02-21T01:51:02;100618.28;;;18.47;46.88
85914;BME280;76454;48.724;16.968;2024-02-21T01:53:36;100620.44;;;18.44;46.73
85914;BME280;76454;48.724;16.968;2024-02-21T01:56:02;100621.50;;;18.43;47.03
85914;BME280;76454;48.724;16.968;2024-02-21T01:58:30;100621.78;;;18.42;47.02
85914;BME280;76454;48.724;16.968;2024-02-21T02:00:56;100615.59;;;18.41;46.96
85914;BME280;76454;48.724;16.968;2024-02-21T02:03:21;100617.22;;;18.42;47.02
85914;BME280;76454;48.724;16.968;2024-02-21T02:05:47;100616.09;;;18.43;47.16
85914;BME280;76454;48.724;16.968;2024-02-21T02:08:14;100609.88;;;18.43;47.12
85914;BME280;76454;48.724;16.968;2024-02-21T02:10:39;100608.25;;;18.42;47.17
85914;BME280;76454;48.724;16.968;2024-02-21T02:13:05;100612.88;;;18.41;47.05
85914;BME280;76454;48.724;16.968;2024-02-21T02:18:04;100595.28;;;18.39;46.98
85914;BME280;76454;48.724;16.968;2024-02-21T02:20:29;100597.16;;;18.38;46.99
85914;BME280;76454;48.724;16.968;2024-02-21T02:22:55;100589.88;;;18.39;46.98
85914;BME280;76454;48.724;16.968;2024-02-21T02:25:20;100586.34;;;18.38;47.17
85914;BME280;76454;48.724;16.968;2024-02-21T02:27:46;100587.44;;;18.37;47.11
85914;BME280;76454;48.724;16.968;2024-02-21T02:30:11;100588.53;;;18.36;47.14
85914;BME280;76454;48.724;16.968;2024-02-21T02:32:36;100592.31;;;18.35;47.13
85914;BME280;76454;48.724;16.968;2024-02-21T02:35:02;100589.63;;;18.35;47.32
85914;BME280;76454;48.724;16.968;2024-02-21T02:37:27;100586.63;;;18.37;46.92
85914;BME280;76454;48.724;16.968;2024-02-21T02:39:52;100586.59;;;18.42;46.80
85914;BME280;76454;48.724;16.968;2024-02-21T02:42:17;100590.91;;;18.48;46.44
85914;BME280;76454;48.724;16.968;2024-02-21T02:44:42;100578.97;;;18.54;46.14
85914;BME280;76454;48.724;16.968;2024-02-21T02:47:08;100579.75;;;18.60;45.91
85914;BME280;76454;48.724;16.968;2024-02-21T02:49:33;100566.19;;;18.65;45.63
85914;BME280;76454;48.724;16.968;2024-02-21T02:51:59;100570.78;;;18.70;45.30
85914;BME280;76454;48.724;16.968;2024-02-21T02:54:24;100574.00;;;18.72;45.31
85914;BME280;76454;48.724;16.968;2024-02-21T02:56:49;100566.66;;;18.77;44.78
85914;BME280;76454;48.724;16.968;2024-02-21T02:59:15;100572.31;;;18.81;44.63
85914;BME280;76454;48.724;16.968;2024-02-21T03:01:40;100563.91;;;18.83;44.63
85914;BME280;76454;48.724;16.968;2024-02-21T03:04:05;100567.16;;;18.80;44.76
85914;BME280;76454;48.724;16.968;2024-02-21T03:06:30;100569.63;;;18.76;44.66
85914;BME280;76454;48.724;16.968;2024-02-21T03:08:55;100569.41;;;18.72;44.58
85914;BME280;76454;48.724;16.968;2024-02-21T03:11:21;100568.31;;;18.68;44.91
85914;BME280;76454;48.724;16.968;2024-02-21T03:13:53;100564.84;;;18.63;45.18
85914;BME280;76454;48.724;16.968;2024-02-21T03:16:18;100569.72;;;18.60;45.31
85914;BME280;76454;48.724;16.968;2024-02-21T03:18:44;100575.72;;;18.57;45.69
85914;BME280;76454;48.724;16.968;2024-02-21T03:21:09;100573.53;;;18.54;45.93
85914;BME280;76454;48.724;16.968;2024-02-21T03:23:34;100566.78;;;18.52;46.03
85914;BME280;76454;48.724;16.968;2024-02-21T03:25:59;100564.38;;;18.50;46.18
85914;BME280;76454;48.724;16.968;2024-02-21T03:28:24;100568.97;;;18.50;46.41
85914;BME280;76454;48.724;16.968;2024-02-21T03:30:50;100566.53;;;18.48;46.45
85914;BME280;76454;48.724;16.968;2024-02-21T03:33:15;100567.91;;;18.45;46.34
85914;BME280;76454;48.724;16.968;2024-02-21T03:35:40;100568.72;;;18.46;46.56
85914;BME280;76454;48.724;16.968;2024-02-21T03:38:05;100561.94;;;18.43;46.67
85914;BME280;76454;48.724;16.968;2024-02-21T03:40:30;100561.44;;;18.41;46.46
85914;BME280;76454;48.724;16.968;2024-02-21T03:42:56;100561.44;;;18.41;46.99
85914;BME280;76454;48.724;16.968;2024-02-21T03:45:21;100556.56;;;18.38;46.69
85914;BME280;76454;48.724;16.968;2024-02-21T03:47:46;100566.59;;;18.38;46.85
85914;BME280;76454;48.724;16.968;2024-02-21T03:50:11;100564.97;;;18.37;46.85
85914;BME280;76454;48.724;16.968;2024-02-21T03:52:37;100552.53;;;18.36;46.81
85914;BME280;76454;48.724;16.968;2024-02-21T03:55:02;100562.56;;;18.35;46.94
85914;BME280;76454;48.724;16.968;2024-02-21T03:57:27;100563.91;;;18.33;47.00
85914;BME280;76454;48.724;16.968;2024-02-21T03:59:52;100555.25;;;18.31;46.80
85914;BME280;76454;48.724;16.968;2024-02-21T04:02:17;100557.16;;;18.30;46.81
85914;BME280;76454;48.724;16.968;2024-02-21T04:04:46;100549.84;;;18.31;46.98
85914;BME280;76454;48.724;16.968;2024-02-21T04:07:13;100548.75;;;18.32;46.83
85914;BME280;76454;48.724;16.968;2024-02-21T04:09:38;100551.19;;;18.33;46.76
85914;BME280;76454;48.724;16.968;2024-02-21T04:12:03;100551.19;;;18.33;46.87
85914;BME280;76454;48.724;16.968;2024-02-21T04:14:29;100546.84;;;18.32;46.95
85914;BME280;76454;48.724;16.968;2024-02-21T04:16:54;100548.75;;;18.32;46.88
85914;BME280;76454;48.724;16.968;2024-02-21T04:19:19;100545.25;;;18.31;46.98
85914;BME280;76454;48.724;16.968;2024-02-21T04:21:44;100542.53;;;18.31;46.96
85914;BME280;76454;48.724;16.968;2024-02-21T04:24:10;100545.50;;;18.29;46.93
85914;BME280;76454;48.724;16.968;2024-02-21T04:26:35;100548.22;;;18.29;46.83
85914;BME280;76454;48.724;16.968;2024-02-21T04:29:00;100550.91;;;18.29;47.11
85914;BME280;76454;48.724;16.968;2024-02-21T04:31:25;100554.97;;;18.32;46.99
85914;BME280;76454;48.724;16.968;2024-02-21T04:33:51;100548.44;;;18.38;46.61
85914;BME280;76454;48.724;16.968;2024-02-21T04:36:16;100544.09;;;18.48;46.03
85914;BME280;76454;48.724;16.968;2024-02-21T04:38:41;100554.06;;;18.52;45.85
85914;BME280;76454;48.724;16.968;2024-02-21T04:41:06;100548.06;;;18.60;45.38
85914;BME280;76454;48.724;16.968;2024-02-21T04:43:31;100552.94;;;18.64;45.37
85914;BME280;76454;48.724;16.968;2024-02-21T04:45:56;100552.59;;;18.70;44.95
85914;BME280;76454;48.724;16.968;2024-02-21T04:48:22;100554.75;;;18.73;44.78
85914;BME280;76454;48.724;16.968;2024-02-21T04:50:47;100553.09;;;18.77;44.73
85914;BME280;76454;48.724;16.968;2024-02-21T04:53:12;100545.22;;;18.81;44.47
85914;BME280;76454;48.724;16.968;2024-02-21T04:55:37;100548.44;;;18.83;44.41
85914;BME280;76454;48.724;16.968;2024-02-21T04:58:02;100540.38;;;18.78;44.19
85914;BME280;76454;48.724;16.968;2024-02-21T05:00:28;100536.31;;;18.75;44.36
85914;BME280;76454;48.724;16.968;2024-02-21T05:02:53;100544.19;;;18.72;44.52
85914;BME280;76454;48.724;16.968;2024-02-21T05:05:18;100531.22;;;18.69;44.33
85914;BME280;76454;48.724;16.968;2024-02-21T05:07:43;100543.69;;;18.65;44.87
85914;BME280;76454;48.724;16.968;2024-02-21T05:10:09;100540.47;;;18.63;44.86
85914;BME280;76454;48.724;16.968;2024-02-21T05:12:34;100531.28;;;18.58;45.31
85914;BME280;76454;48.724;16.968;2024-02-21T05:14:59;100532.94;;;18.54;45.31
85914;BME280;76454;48.724;16.968;2024-02-21T05:17:25;100532.38;;;18.52;45.53
85914;BME280;76454;48.724;16.968;2024-02-21T05:19:50;100538.09;;;18.51;45.90
85914;BME280;76454;48.724;16.968;2024-02-21T05:22:15;100539.19;;;18.50;45.78
85914;BME280;76454;48.724;16.968;2024-02-21T05:24:40;100527.84;;;18.48;45.85
85914;BME280;76454;48.724;16.968;2024-02-21T05:27:05;100525.41;;;18.46;46.25
85914;BME280;76454;48.724;16.968;2024-02-21T05:29:31;100521.09;;;18.45;46.16
85914;BME280;76454;48.724;16.968;2024-02-21T05:31:56;100523.25;;;18.43;46.22
85914;BME280;76454;48.724;16.968;2024-02-21T05:34:25;100522.72;;;18.41;46.32
85914;BME280;76454;48.724;16.968;2024-02-21T05:36:50;100522.19;;;18.39;46.43
85914;BME280;76454;48.724;16.968;2024-02-21T05:39:17;100522.44;;;18.37;46.52
85914;BME280;76454;48.724;16.968;2024-02-21T05:41:42;100519.50;;;18.39;46.55
85914;BME280;76454;48.724;16.968;2024-02-21T05:44:08;100526.25;;;18.41;46.44
85914;BME280;76454;48.724;16.968;2024-02-21T05:46:33;100510.00;;;18.41;46.46
85914;BME280;76454;48.724;16.968;2024-02-21T05:48:58;100515.69;;;18.40;46.40
85914;BME280;76454;48.724;16.968;2024-02-21T05:51:24;100512.75;;;18.36;46.30
85914;BME280;76454;48.724;16.968;2024-02-21T05:53:49;100519.22;;;18.35;46.38
85914;BME280;76454;48.724;16.968;2024-02-21T05:56:14;100516.81;;;18.34;46.57
85914;BME280;76454;48.724;16.968;2024-02-21T05:58:40;100515.19;;;18.33;46.38
85914;BME280;76454;48.724;16.968;2024-02-21T06:01:05;100520.06;;;18.31;46.47
85914;BME280;76454;48.724;16.968;2024-02-21T06:03:31;100515.72;;;18.29;46.61
85914;BME280;76454;48.724;16.968;2024-02-21T06:05:57;100513.84;;;18.30;46.55
85914;BME280;76454;48.724;16.968;2024-02-21T06:08:22;100518.19;;;18.31;46.43
85914;BME280;76454;48.724;16.968;2024-02-21T06:10:47;100516.81;;;18.28;46.47
85914;BME280;76454;48.724;16.968;2024-02-21T06:13:19;100523.84;;;18.29;46.49
85914;BME280;76454;48.724;16.968;2024-02-21T06:15:46;100527.63;;;18.28;46.50
85914;BME280;76454;48.724;16.968;2024-02-21T06:18:11;100523.59;;;18.26;46.39
85914;BME280;76454;48.724;16.968;2024-02-21T06:20:36;100518.47;;;18.24;46.48
85914;BME280;76454;48.724;16.968;2024-02-21T06:23:04;100514.69;;;18.25;46.54
85914;BME280;76454;48.724;16.968;2024-02-21T06:25:29;100519.00;;;18.26;46.61
85914;BME280;76454;48.724;16.968;2024-02-21T06:27:54;100525.22;;;18.27;46.66
85914;BME280;76454;48.724;16.968;2024-02-21T06:30:19;100529.56;;;18.28;46.51
85914;BME280;76454;48.724;16.968;2024-02-21T06:32:44;100524.69;;;18.30;46.47
85914;BME280;76454;48.724;16.968;2024-02-21T06:35:10;100517.31;;;18.36;46.20
85914;BME280;76454;48.724;16.968;2024-02-21T06:37:35;100518.91;;;18.42;46.08
85914;BME280;76454;48.724;16.968;2024-02-21T06:40:00;100520.50;;;18.48;45.64
85914;BME280;76454;48.724;16.968;2024-02-21T06:42:25;100519.94;;;18.56;45.35
85914;BME280;76454;48.724;16.968;2024-02-21T06:44:51;100519.59;;;18.63;45.11
85914;BME280;76454;48.724;16.968;2024-02-21T06:47:16;100521.19;;;18.69;44.86
85914;BME280;76454;48.724;16.968;2024-02-21T06:49:41;100522.81;;;18.70;44.61
85914;BME280;76454;48.724;16.968;2024-02-21T06:52:07;100517.94;;;18.72;44.52
85914;BME280;76454;48.724;16.968;2024-02-21T06:54:32;100517.91;;;18.77;44.21
85914;BME280;76454;48.724;16.968;2024-02-21T06:56:57;100524.34;;;18.82;44.10
85914;BME280;76454;48.724;16.968;2024-02-21T06:59:23;100519.22;;;18.80;44.43
85914;BME280;76454;48.724;16.968;2024-02-21T07:01:48;100524.09;;;18.78;44.04
85914;BME280;76454;48.724;16.968;2024-02-21T07:04:13;100518.16;;;18.76;44.29
85914;BME280;76454;48.724;16.968;2024-02-21T07:06:39;100516.03;;;18.73;44.49
85914;BME280;76454;48.724;16.968;2024-02-21T07:09:04;100520.41;;;18.69;44.86
85914;BME280;76454;48.724;16.968;2024-02-21T07:11:29;100520.94;;;18.66;44.77
85914;BME280;76454;48.724;16.968;2024-02-21T07:13:54;100519.59;;;18.63;44.99
85914;BME280;76454;48.724;16.968;2024-02-21T07:16:19;100520.97;;;18.60;45.05
85914;BME280;76454;48.724;16.968;2024-02-21T07:18:45;100520.97;;;18.60;45.39
85914;BME280;76454;48.724;16.968;2024-02-21T07:21:10;100520.72;;;18.57;45.44
85914;BME280;76454;48.724;16.968;2024-02-21T07:23:35;100512.09;;;18.55;45.81
85914;BME280;76454;48.724;16.968;2024-02-21T07:26:00;100521.56;;;18.52;45.70
85914;BME280;76454;48.724;16.968;2024-02-21T07:28:25;100517.25;;;18.51;46.19
85914;BME280;76454;48.724;16.968;2024-02-21T07:30:51;100511.00;;;18.51;45.84
85914;BME280;76454;48.724;16.968;2024-02-21T07:33:16;100512.09;;;18.50;46.05
85914;BME280;76454;48.724;16.968;2024-02-21T07:35:41;100512.09;;;18.50;45.94
85914;BME280;76454;48.724;16.968;2024-02-21T07:38:07;100515.09;;;18.48;46.22
85914;BME280;76454;48.724;16.968;2024-02-21T07:40:33;100511.03;;;18.45;46.44
85914;BME280;76454;48.724;16.968;2024-02-21T07:42:58;100507.53;;;18.45;46.46
85914;BME280;76454;48.724;16.968;2024-02-21T07:45:23;100513.22;;;18.43;46.51
85914;BME280;76454;48.724;16.968;2024-02-21T07:47:49;100506.22;;;18.42;46.62
85914;BME280;76454;48.724;16.968;2024-02-21T07:50:15;100512.69;;;18.41;46.41
85914;BME280;76454;48.724;16.968;2024-02-21T07:52:40;100506.75;;;18.39;46.76
85914;BME280;76454;48.724;16.968;2024-02-21T07:55:05;100505.94;;;18.39;46.78
85914;BME280;76454;48.724;16.968;2024-02-21T07:57:30;100498.09;;;18.37;46.75
85914;BME280;76454;48.724;16.968;2024-02-21T07:59:56;100492.69;;;18.37;46.87
85914;BME280;76454;48.724;16.968;2024-02-21T08:02:21;100489.16;;;18.37;46.87
85914;BME280;76454;48.724;16.968;2024-02-21T08:04:46;100494.88;;;18.35;46.90
85914;BME280;76454;48.724;16.968;2024-02-21T08:07:11;100486.75;;;18.35;46.99
85914;BME280;76454;48.724;16.968;2024-02-21T08:09:39;100487.03;;;18.34;46.94
85914;BME280;76454;48.724;16.968;2024-02-21T08:12:04;100486.75;;;18.35;47.06
85914;BME280;76454;48.724;16.968;2024-02-21T08:14:30;100477.53;;;18.36;46.77
85914;BME280;76454;48.724;16.968;2024-02-21T08:16:55;100474.53;;;18.38;46.68
85914;BME280;76454;48.724;16.968;2024-02-21T08:19:21;100476.16;;;18.39;46.57
85914;BME280;76454;48.724;16.968;2024-02-21T08:21:47;100469.94;;;18.38;46.55
85914;BME280;76454;48.724;16.968;2024-02-21T08:24:13;100479.97;;;18.38;46.62
85914;BME280;76454;48.724;16.968;2024-02-21T08:26:40;100478.06;;;18.38;46.58
85914;BME280;76454;48.724;16.968;2024-02-21T08:29:05;100475.34;;;18.38;46.52
85914;BME280;76454;48.724;16.968;2024-02-21T08:31:30;100476.16;;;18.39;46.71
85914;BME280;76454;48.724;16.968;2024-02-21T08:33:59;100469.13;;;18.38;46.77
85914;BME280;76454;48.724;16.968;2024-02-21T08:36:27;100469.13;;;18.38;46.57
85914;BME280;76454;48.724;16.968;2024-02-21T08:38:52;100467.22;;;18.38;46.57
85914;BME280;76454;48.724;16.968;2024-02-21T08:41:17;100461.00;;;18.38;46.69
85914;BME280;76454;48.724;16.968;2024-02-21T08:43:43;100463.72;;;18.38;46.76
85914;BME280;76454;48.724;16.968;2024-02-21T08:46:08;100458.31;;;18.38;46.76
85914;BME280;76454;48.724;16.968;2024-02-21T08:48:33;100458.59;;;18.36;46.79
85914;BME280;76454;48.724;16.968;2024-02-21T08:50:58;100456.97;;;18.35;46.69
85914;BME280;76454;48.724;16.968;2024-02-21T08:53:23;100454.56;;;18.34;46.94
85914;BME280;76454;48.724;16.968;2024-02-21T08:55:49;100449.41;;;18.32;46.92
85914;BME280;76454;48.724;16.968;2024-02-21T08:58:14;100453.22;;;18.31;47.21
85914;BME280;76454;48.724;16.968;2024-02-21T09:00:39;100459.72;;;18.30;46.80
85914;BME280;76454;48.724;16.968;2024-02-21T09:03:05;100449.16;;;18.28;46.84
85914;BME280;76454;48.724;16.968;2024-02-21T09:05:30;100454.56;;;18.28;47.04
85914;BME280;76454;48.724;16.968;2024-02-21T09:07:55;100455.38;;;18.29;46.88
85914;BME280;76454;48.724;16.968;2024-02-21T09:10:21;100454.56;;;18.28;47.04
85914;BME280;76454;48.724;16.968;2024-02-21T09:12:46;100450.25;;;18.27;46.99
85914;BME280;76454;48.724;16.968;2024-02-21T09:15:12;100455.13;;;18.25;46.76
85914;BME280;76454;48.724;16.968;2024-02-21T09:17:37;100450.00;;;18.24;47.02
85914;BME280;76454;48.724;16.968;2024-02-21T09:20:04;100447.31;;;18.24;47.35
85914;BME280;76454;48.724;16.968;2024-02-21T09:22:29;100447.59;;;18.22;46.72
85914;BME280;76454;48.724;16.968;2024-02-21T09:24:56;100444.06;;;18.22;46.71
85914;BME280;76454;48.724;16.968;2024-02-21T09:27:21;100440.81;;;18.20;46.94
85914;BME280;76454;48.724;16.968;2024-02-21T09:29:47;100433.50;;;18.20;47.21
85914;BME280;76454;48.724;16.968;2024-02-21T09:32:12;100434.31;;;18.21;47.09
85914;BME280;76454;48.724;16.968;2024-02-21T09:34:38;100435.13;;;18.21;47.41
85914;BME280;76454;48.724;16.968;2024-02-21T09:37:04;100432.44;;;18.21;47.29
85914;BME280;76454;48.724;16.968;2024-02-21T09:39:30;100424.31;;;18.21;47.17
85914;BME280;76454;48.724;16.968;2024-02-21T09:41:59;100428.91;;;18.21;47.32
85914;BME280;76454;48.724;16.968;2024-02-21T09:44:31;100429.72;;;18.21;47.46
85914;BME280;76454;48.724;16.968;2024-02-21T09:47:01;100434.06;;;18.22;47.32
85914;BME280;76454;48.724;16.968;2024-02-21T09:49:32;100431.88;;;18.19;46.68
85914;BME280;76454;48.724;16.968;2024-02-21T09:51:59;100428.63;;;18.22;47.01
85914;BME280;76454;48.724;16.968;2024-02-21T09:54:25;100426.19;;;18.21;46.52
85914;BME280;76454;48.724;16.968;2024-02-21T09:56:50;100429.72;;;18.21;47.21
85914;BME280;76454;48.724;16.968;2024-02-21T09:59:16;100422.41;;;18.22;47.38
85914;BME280;76454;48.724;16.968;2024-02-21T10:01:44;100414.00;;;18.23;46.99
85914;BME280;76454;48.724;16.968;2024-02-21T10:04:09;100412.66;;;18.21;47.18
85914;BME280;76454;48.724;16.968;2024-02-21T10:06:35;100407.00;;;18.22;47.07
85914;BME280;76454;48.724;16.968;2024-02-21T10:09:02;100409.41;;;18.24;46.27
85914;BME280;76454;48.724;16.968;2024-02-21T10:11:27;100406.69;;;18.24;46.94
85914;BME280;76454;48.724;16.968;2024-02-21T10:14:05;100405.31;;;18.26;46.43
85914;BME280;76454;48.724;16.968;2024-02-21T10:16:30;100405.88;;;18.23;46.07
85914;BME280;76454;48.724;16.968;2024-02-21T10:18:55;100401.78;;;18.26;46.23
85914;BME280;76454;48.724;16.968;2024-02-21T10:21:21;100403.34;;;18.37;45.87
85914;BME280;76454;48.724;16.968;2024-02-21T10:23:49;100398.41;;;18.44;45.50
85914;BME280;76454;48.724;16.968;2024-02-21T10:26:16;100408.66;;;18.53;45.49
85914;BME280;76454;48.724;16.968;2024-02-21T10:28:42;100405.63;;;18.59;45.27
85914;BME280;76454;48.724;16.968;2024-02-21T10:31:09;100402.84;;;18.65;45.20
85914;BME280;76454;48.724;16.968;2024-02-21T10:33:37;100400.34;;;18.73;44.81
85914;BME280;76454;48.724;16.968;2024-02-21T10:36:06;100404.38;;;18.76;44.66
85914;BME280;76454;48.724;16.968;2024-02-21T10:38:32;100403.25;;;18.82;44.70
85914;BME280;76454;48.724;16.968;2024-02-21T10:40:58;100397.81;;;18.82;44.50
85914;BME280;76454;48.724;16.968;2024-02-21T10:43:24;100391.06;;;18.80;44.91
85914;BME280;76454;48.724;16.968;2024-02-21T10:45:51;100390.84;;;18.76;45.03
85914;BME280;76454;48.724;16.968;2024-02-21T10:48:18;100380.88;;;18.71;45.06
85914;BME280;76454;48.724;16.968;2024-02-21T10:50:56;100382.25;;;18.69;45.12
85914;BME280;76454;48.724;16.968;2024-02-21T10:53:29;100390.94;;;18.66;45.55
85914;BME280;76454;48.724;16.968;2024-02-21T10:56:02;100380.69;;;18.63;45.66
85914;BME280;76454;48.724;16.968;2024-02-21T10:58:30;100381.53;;;18.58;45.44
85914;BME280;76454;48.724;16.968;2024-02-21T11:00:56;100376.69;;;18.55;46.00
85914;BME280;76454;48.724;16.968;2024-02-21T11:03:21;100375.06;;;18.54;46.23
85914;BME280;76454;48.724;16.968;2024-02-21T11:05:46;100374.53;;;18.52;46.59
85914;BME280;76454;48.724;16.968;2024-02-21T11:08:11;100381.03;;;18.51;46.21
85914;BME280;76454;48.724;16.968;2024-02-21T11:10:37;100371.28;;;18.50;46.88
85914;BME280;76454;48.724;16.968;2024-02-21T11:13:07;100372.41;;;18.49;46.72
85914;BME280;76454;48.724;16.968;2024-02-21T11:15:33;100357.53;;;18.46;46.81
85914;BME280;76454;48.724;16.968;2024-02-21T11:17:58;100361.59;;;18.43;46.89
85914;BME280;76454;48.724;16.968;2024-02-21T11:20:33;100359.44;;;18.45;47.14
85914;BME280;76454;48.724;16.968;2024-02-21T11:22:59;100351.06;;;18.42;46.38
85914;BME280;76454;48.724;16.968;2024-02-21T11:25:24;100351.06;;;18.42;46.00
85914;BME280;76454;48.724;16.968;2024-02-21T11:27:50;100338.38;;;18.37;46.05
85914;BME280;76454;48.724;16.968;2024-02-21T11:30:26;100338.69;;;18.31;45.94
85914;BME280;76454;48.724;16.968;2024-02-21T11:32:58;100328.16;;;18.29;46.20
85914;BME280;76454;48.724;16.968;2024-02-21T11:35:23;100323.00;;;18.33;46.82
85914;BME280;76454;48.724;16.968;2024-02-21T11:37:48;100322.13;;;18.37;47.24
85914;BME280;76454;48.724;16.968;2024-02-21T11:40:14;100316.50;;;18.34;46.28
85914;BME280;76454;48.724;16.968;2024-02-21T11:42:39;100308.13;;;18.30;46.56
85914;BME280;76454;48.724;16.968;2024-02-21T11:45:04;100314.09;;;18.27;46.27
85914;BME280;76454;48.724;16.968;2024-02-21T11:47:30;100304.66;;;18.24;46.53
85914;BME280;76454;48.724;16.968;2024-02-21T11:49:55;100298.94;;;18.26;46.93
85914;BME280;76454;48.724;16.968;2024-02-21T11:52:24;100300.56;;;18.27;47.22
85914;BME280;76454;48.724;16.968;2024-02-21T11:54:52;100297.63;;;18.23;46.96
85914;BME280;76454;48.724;16.968;2024-02-21T11:57:19;100300.31;;;18.23;46.78
85914;BME280;76454;48.724;16.968;2024-02-21T11:59:45;100297.38;;;18.20;46.41
85914;BME280;76454;48.724;16.968;2024-02-21T12:02:11;100291.13;;;18.24;47.21
85914;BME280;76454;48.724;16.968;2024-02-21T12:04:36;100289.69;;;18.32;47.25
85914;BME280;76454;48.724;16.968;2024-02-21T12:07:01;100283.78;;;18.30;46.63
85914;BME280;76454;48.724;16.968;2024-02-21T12:09:29;100286.75;;;18.28;47.19
85914;BME280;76454;48.724;16.968;2024-02-21T12:11:57;100275.91;;;18.28;46.42
85914;BME280;76454;48.724;16.968;2024-02-21T12:14:24;100269.94;;;18.32;46.65
85914;BME280;76454;48.724;16.968;2024-02-21T12:16:50;100263.50;;;18.27;46.78
85914;BME280;76454;48.724;16.968;2024-02-21T12:19:15;100264.81;;;18.30;46.43
85914;BME280;76454;48.724;16.968;2024-02-21T12:21:42;100263.22;;;18.29;46.44
85914;BME280;76454;48.724;16.968;2024-02-21T12:24:23;100256.94;;;18.34;46.57
85914;BME280;76454;48.724;16.968;2024-02-21T12:26:49;100254.69;;;18.41;45.79
85914;BME280;76454;48.724;16.968;2024-02-21T12:29:15;100257.06;;;18.48;45.38
85914;BME280;76454;48.724;16.968;2024-02-21T12:31:40;100251.31;;;18.54;45.36
85914;BME280;76454;48.724;16.968;2024-02-21T12:34:05;100251.78;;;18.61;44.81
85914;BME280;76454;48.724;16.968;2024-02-21T12:36:33;100250.03;;;18.71;44.06